sensor_id;sensor_type;location;lat;lon;timestamp;temperature;humidity
47845;DHT22;33605;48.822;8.796;2022-08-14T02:39:30;18.30;37.40
47845;DHT22;33605;48.822;8.796;2022-08-14T02:41:57;19.50;35.00
47845;DHT22;33605;48.822;8.796;2022-08-14T02:44:23;19.30;34.80
47845;DHT22;33605;48.822;8.796;2022-08-14T02:46:52;19.20;34.80
47845;DHT22;33605;48.822;8.796;2022-08-14T02:49:19;19.20;34.90
47845;DHT22;33605;48.822;8.796;2022-08-14T02:51:51;19.20;34.90
47845;DHT22;33605;48.822;8.796;2022-08-14T02:54:17;19.10;35.00
47845;DHT22;33605;48.822;8.796;2022-08-14T02:56:43;19.10;35.10
47845;DHT22;33605;48.822;8.796;2022-08-14T02:59:09;19.00;35.10
47845;DHT22;33605;48.822;8.796;2022-08-14T03:01:36;19.00;35.10
47845;DHT22;33605;48.822;8.796;2022-08-14T03:04:02;18.90;35.70
47845;DHT22;33605;48.822;8.796;2022-08-14T03:06:30;18.90;35.10
47845;DHT22;33605;48.822;8.796;2022-08-14T03:08:56;18.80;35.10
47845;DHT22;33605;48.822;8.796;2022-08-14T03:11:23;18.80;35.30
47845;DHT22;33605;48.822;8.796;2022-08-14T03:13:50;18.80;35.30
47845;DHT22;33605;48.822;8.796;2022-08-14T03:16:22;18.80;35.40
47845;DHT22;33605;48.822;8.796;2022-08-14T03:18:51;18.70;35.40
47845;DHT22;33605;48.822;8.796;2022-08-14T03:21:21;18.70;35.40
47845;DHT22;33605;48.822;8.796;2022-08-14T03:23:49;18.80;35.50
47845;DHT22;33605;48.822;8.796;2022-08-14T03:26:19;18.70;35.40
47845;DHT22;33605;48.822;8.796;2022-08-14T03:28:48;18.70;35.50
47845;DHT22;33605;48.822;8.796;2022-08-14T03:31:15;18.70;35.70
47845;DHT22;33605;48.822;8.796;2022-08-14T03:33:41;18.70;35.70
47845;DHT22;33605;48.822;8.796;2022-08-14T03:36:10;18.70;35.70
47845;DHT22;33605;48.822;8.796;2022-08-14T03:38:45;18.70;35.70
47845;DHT22;33605;48.822;8.796;2022-08-14T03:41:13;18.70;35.90
47845;DHT22;33605;48.822;8.796;2022-08-14T03:43:49;18.70;35.90
47845;DHT22;33605;48.822;8.796;2022-08-14T03:46:16;18.60;35.80
47845;DHT22;33605;48.822;8.796;2022-08-14T03:48:43;18.60;35.80
47845;DHT22;33605;48.822;8.796;2022-08-14T03:51:10;18.60;35.90
47845;DHT22;33605;48.822;8.796;2022-08-14T03:53:39;18.50;35.70
47845;DHT22;33605;48.822;8.796;2022-08-14T03:56:07;18.50;35.80
47845;DHT22;33605;48.822;8.796;2022-08-14T03:58:36;18.50;35.90
47845;DHT22;33605;48.822;8.796;2022-08-14T04:01:03;18.40;36.00
47845;DHT22;33605;48.822;8.796;2022-08-14T04:03:30;18.40;36.10
47845;DHT22;33605;48.822;8.796;2022-08-14T04:05:55;18.40;36.10
47845;DHT22;33605;48.822;8.796;2022-08-14T04:08:21;18.30;36.00
47845;DHT22;33605;48.822;8.796;2022-08-14T04:10:47;18.30;36.30
47845;DHT22;33605;48.822;8.796;2022-08-14T04:13:13;18.30;36.30
47845;DHT22;33605;48.822;8.796;2022-08-14T04:15:43;18.30;36.30
47845;DHT22;33605;48.822;8.796;2022-08-14T04:18:10;18.30;36.60
47845;DHT22;33605;48.822;8.796;2022-08-14T04:20:36;18.30;36.30
47845;DHT22;33605;48.822;8.796;2022-08-14T04:23:02;18.30;36.30
47845;DHT22;33605;48.822;8.796;2022-08-14T04:25:32;18.30;36.50
47845;DHT22;33605;48.822;8.796;2022-08-14T04:27:59;18.30;36.50
47845;DHT22;33605;48.822;8.796;2022-08-14T04:30:26;18.20;36.40
47845;DHT22;33605;48.822;8.796;2022-08-14T04:32:54;18.20;37.00
47845;DHT22;33605;48.822;8.796;2022-08-14T04:35:20;18.10;36.30
47845;DHT22;33605;48.822;8.796;2022-08-14T04:37:45;18.10;36.40
47845;DHT22;33605;48.822;8.796;2022-08-14T04:40:29;18.10;36.40
47845;DHT22;33605;48.822;8.796;2022-08-14T04:43:14;18.10;36.40
47845;DHT22;33605;48.822;8.796;2022-08-14T04:45:58;18.10;36.60
47845;DHT22;33605;48.822;8.796;2022-08-14T04:48:26;18.10;36.60
47845;DHT22;33605;48.822;8.796;2022-08-14T04:50:52;18.10;36.70
47845;DHT22;33605;48.822;8.796;2022-08-14T04:53:20;18.00;36.60
47845;DHT22;33605;48.822;8.796;2022-08-14T04:55:48;18.00;36.70
47845;DHT22;33605;48.822;8.796;2022-08-14T04:58:14;18.00;36.80
47845;DHT22;33605;48.822;8.796;2022-08-14T05:00:42;18.00;36.80
47845;DHT22;33605;48.822;8.796;2022-08-14T05:03:08;18.00;36.80
47845;DHT22;33605;48.822;8.796;2022-08-14T05:05:34;18.10;37.00
47845;DHT22;33605;48.822;8.796;2022-08-14T05:08:09;18.10;37.10
47845;DHT22;33605;48.822;8.796;2022-08-14T05:10:39;18.10;37.20
47845;DHT22;33605;48.822;8.796;2022-08-14T05:13:05;18.10;37.00
47845;DHT22;33605;48.822;8.796;2022-08-14T05:15:33;18.10;37.00
47845;DHT22;33605;48.822;8.796;2022-08-14T05:18:11;18.20;37.20
47845;DHT22;33605;48.822;8.796;2022-08-14T05:20:48;18.20;37.30
47845;DHT22;33605;48.822;8.796;2022-08-14T05:23:16;18.20;37.20
47845;DHT22;33605;48.822;8.796;2022-08-14T05:25:43;18.30;37.30
47845;DHT22;33605;48.822;8.796;2022-08-14T05:28:12;18.30;37.30
47845;DHT22;33605;48.822;8.796;2022-08-14T05:30:44;18.40;37.40
47845;DHT22;33605;48.822;8.796;2022-08-14T05:33:12;18.40;37.30
47845;DHT22;33605;48.822;8.796;2022-08-14T05:35:37;18.50;37.40
47845;DHT22;33605;48.822;8.796;2022-08-14T05:38:07;18.50;37.40
47845;DHT22;33605;48.822;8.796;2022-08-14T05:40:33;18.50;37.30
47845;DHT22;33605;48.822;8.796;2022-08-14T05:43:00;18.50;37.20
